Time;durP1;ratioP1;P1;durP2;ratioP2;P2;SDS_P1;SDS_P2;PMS_P1;PMS_P2;Temp;Humidity;BMP_temperature;BMP_pressure;BME280_temperature;BME280_humidity;BME280_pressure;Samples;Min_cycle;Max_cycle;Signal;HPM_P1;HPM_P2
2023/04/23 00:01:04;;;;;;;10.65;9.65;;;13.30;59.00;;;;;;5001118;28;20076;-65
2023/04/23 00:03:34;;;;;;;9.63;8.63;;;13.30;59.10;;;;;;4997070;28;20049;-65
2023/04/23 00:06:06;;;;;;;10.35;9.45;;;13.30;59.10;;;;;;5000730;28;20083;-66
2023/04/23 00:08:33;;;;;;;10.68;9.68;;;13.20;59.00;;;;;;5001145;28;20032;-66
2023/04/23 00:10:59;;;;;;;10.07;9.07;;;13.20;59.00;;;;;;4997721;28;20081;-63
2023/04/23 00:13:26;;;;;;;9.85;8.85;;;13.20;59.00;;;;;;4998920;28;20048;-64
2023/04/23 00:15:52;;;;;;;9.65;8.82;;;13.20;59.10;;;;;;4987850;28;20034;-62
2023/04/23 00:18:18;;;;;;;9.98;9.07;;;13.20;59.10;;;;;;4998650;28;20206;-66
2023/04/23 00:20:45;;;;;;;10.95;9.85;;;13.20;59.20;;;;;;5001554;28;20118;-62
2023/04/23 00:23:11;;;;;;;10.27;9.35;;;13.20;59.20;;;;;;5000979;28;20093;-64
2023/04/23 00:25:37;;;;;;;11.25;10.15;;;13.10;59.10;;;;;;4995354;28;20046;-63
2023/04/23 00:28:03;;;;;;;10.98;10.00;;;13.10;59.10;;;;;;4998404;28;20026;-62
2023/04/23 00:30:29;;;;;;;11.90;10.80;;;13.10;59.20;;;;;;5000832;28;20550;-64
2023/04/23 00:32:55;;;;;;;11.00;10.00;;;13.10;59.20;;;;;;4996257;28;20044;-64
2023/04/23 00:35:21;;;;;;;10.90;9.88;;;13.10;59.40;;;;;;5000277;28;20200;-61
2023/04/23 00:37:47;;;;;;;11.15;10.05;;;13.10;59.30;;;;;;5000749;28;20060;-66
2023/04/23 00:40:13;;;;;;;11.18;10.10;;;13.00;59.20;;;;;;5000846;28;20042;-64
2023/04/23 00:42:40;;;;;;;11.68;10.57;;;13.10;59.40;;;;;;4997307;28;20049;-63
2023/04/23 00:45:11;;;;;;;10.88;9.80;;;13.10;59.50;;;;;;4999244;28;20114;-65
2023/04/23 00:47:36;;;;;;;10.55;9.55;;;13.00;59.30;;;;;;5001030;28;20064;-65
2023/04/23 00:50:03;;;;;;;11.90;10.80;;;13.00;59.40;;;;;;5002025;28;20162;-63
2023/04/23 00:52:30;;;;;;;12.15;10.95;;;13.00;59.40;;;;;;5001019;28;20065;-63
2023/04/23 00:54:56;;;;;;;12.30;11.20;;;13.00;59.40;;;;;;4998688;28;20038;-63
2023/04/23 00:57:23;;;;;;;11.90;10.80;;;13.00;59.40;;;;;;5001329;28;20030;-63
2023/04/23 00:59:49;;;;;;;13.13;11.93;;;13.00;59.50;;;;;;4999209;28;20046;-64
2023/04/23 01:02:16;;;;;;;12.93;11.63;;;13.00;59.50;;;;;;5002162;28;20036;-64
2023/04/23 01:04:50;;;;;;;12.65;11.45;;;12.90;59.40;;;;;;4997997;28;20088;-64
2023/04/23 01:07:17;;;;;;;12.15;11.05;;;13.00;59.60;;;;;;4995221;28;20022;-64
2023/04/23 01:09:43;;;;;;;12.38;11.27;;;12.90;59.40;;;;;;4998234;28;20076;-65
2023/04/23 01:12:09;;;;;;;13.10;11.85;;;12.90;59.40;;;;;;4998664;28;20245;-65
2023/04/23 01:14:36;;;;;;;13.05;11.77;;;12.90;59.50;;;;;;4998683;28;20029;-65
2023/04/23 01:17:04;;;;;;;12.25;11.07;;;12.90;59.50;;;;;;5000430;28;20053;-64
2023/04/23 01:19:30;;;;;;;13.90;12.65;;;12.80;59.40;;;;;;5000120;28;20044;-64
2023/04/23 01:22:00;;;;;;;13.55;12.25;;;12.80;59.40;;;;;;5000325;28;20125;-65
2023/04/23 01:24:30;;;;;;;13.07;11.77;;;12.80;59.50;;;;;;4993155;28;20562;-63
2023/04/23 01:27:00;;;;;;;13.07;11.80;;;12.80;59.60;;;;;;4985230;28;20404;-64
2023/04/23 01:29:27;;;;;;;13.48;12.27;;;12.80;59.60;;;;;;5000056;28;20740;-61
2023/04/23 01:31:54;;;;;;;13.88;12.43;;;12.80;59.70;;;;;;4972921;23;20056;-70
2023/04/23 01:34:21;;;;;;;13.27;11.75;;;12.80;59.70;;;;;;4960559;28;20490;-71
2023/04/23 01:36:47;;;;;;;13.35;11.95;;;12.70;59.60;;;;;;4943500;28;20043;-70
2023/04/23 01:39:13;;;;;;;13.73;12.45;;;12.70;59.70;;;;;;4945595;28;20261;-69
2023/04/23 01:41:40;;;;;;;13.32;12.02;;;12.70;59.70;;;;;;4950244;28;20035;-71
2023/04/23 01:44:06;;;;;;;13.43;12.13;;;12.70;59.70;;;;;;4950110;28;20066;-69
2023/04/23 01:46:32;;;;;;;14.52;12.77;;;12.70;59.80;;;;;;4967941;23;20118;-78
2023/04/23 01:48:58;;;;;;;13.30;12.10;;;12.70;59.90;;;;;;4952877;28;20043;-77
2023/04/23 01:51:26;;;;;;;13.25;11.95;;;12.70;59.90;;;;;;4953885;28;20058;-78
2023/04/23 01:53:52;;;;;;;14.20;12.90;;;12.70;59.90;;;;;;4954161;28;20028;-78
2023/04/23 01:56:21;;;;;;;12.80;11.60;;;12.70;60.00;;;;;;4954772;28;20035;-78
2023/04/23 01:58:47;;;;;;;13.43;11.98;;;12.70;60.00;;;;;;4953913;28;20542;-79
2023/04/23 02:01:13;;;;;;;14.30;12.90;;;12.70;60.10;;;;;;4956848;28;20110;-78
2023/04/23 02:03:39;;;;;;;14.73;13.32;;;12.60;59.90;;;;;;4950954;28;20042;-82
2023/04/23 02:06:06;;;;;;;14.10;12.70;;;12.70;60.10;;;;;;4954251;28;20054;-80
2023/04/23 02:08:32;;;;;;;13.68;12.38;;;12.60;60.00;;;;;;4952309;28;20043;-78
2023/04/23 02:10:58;;;;;;;14.20;12.73;;;12.60;60.00;;;;;;4946979;28;20394;-79
2023/04/23 02:13:24;;;;;;;14.45;13.05;;;12.60;60.00;;;;;;4964151;28;20035;-79
2023/04/23 02:15:50;;;;;;;15.48;13.52;;;12.60;60.10;;;;;;4954884;28;20039;-78
2023/04/23 02:18:16;;;;;;;14.00;12.70;;;12.60;60.10;;;;;;4964488;28;20043;-79
2023/04/23 02:20:42;;;;;;;15.98;14.38;;;12.60;60.10;;;;;;4946556;28;20043;-79
2023/04/23 02:23:08;;;;;;;15.63;14.13;;;12.50;60.00;;;;;;4962405;28;20035;-79
2023/04/23 02:25:37;;;;;;;15.60;14.10;;;12.50;60.00;;;;;;4952300;28;20054;-80
2023/04/23 02:28:07;;;;;;;14.60;13.30;;;12.50;60.10;;;;;;4939243;28;20102;-79
2023/04/23 02:30:34;;;;;;;15.10;13.50;;;12.50;60.10;;;;;;4956902;28;20063;-77
2023/04/23 02:33:00;;;;;;;14.80;13.40;;;12.50;60.20;;;;;;4953668;28;20039;-77
2023/04/23 02:35:26;;;;;;;15.75;14.25;;;12.50;60.30;;;;;;4953944;28;20039;-78
2023/04/23 02:37:53;;;;;;;14.57;13.23;;;12.40;60.10;;;;;;4940574;28;20032;-77
2023/04/23 02:40:19;;;;;;;14.98;13.57;;;12.50;60.30;;;;;;4958255;28;20409;-78
2023/04/23 02:42:45;;;;;;;15.38;13.88;;;12.40;60.10;;;;;;4955302;28;21336;-78
2023/04/23 02:45:11;;;;;;;16.17;14.57;;;12.40;60.10;;;;;;4952351;28;20034;-77
2023/04/23 02:47:37;;;;;;;16.08;14.48;;;12.40;60.10;;;;;;4954983;28;20054;-78
2023/04/23 02:50:05;;;;;;;15.88;14.27;;;12.40;60.20;;;;;;4948519;29;20412;-77
2023/04/23 02:52:31;;;;;;;15.40;13.90;;;12.40;60.30;;;;;;4946519;28;20498;-78
2023/04/23 02:55:02;;;;;;;15.77;14.35;;;12.40;60.30;;;;;;4957268;28;20090;-78
2023/04/23 02:57:27;;;;;;;16.95;15.27;;;12.40;60.30;;;;;;4959010;28;20035;-78
2023/04/23 02:59:54;;;;;;;15.35;13.93;;;12.40;60.30;;;;;;4953266;28;20047;-79
2023/04/23 03:02:23;;;;;;;15.82;14.32;;;12.40;60.40;;;;;;4958619;28;20042;-79
2023/04/23 03:04:50;;;;;;;15.88;14.38;;;12.40;60.40;;;;;;4956183;28;20250;-78
2023/04/23 03:07:16;;;;;;;15.50;14.10;;;12.40;60.40;;;;;;4948433;29;20039;-78
2023/04/23 03:09:43;;;;;;;15.40;14.00;;;12.30;60.30;;;;;;4947031;29;20089;-77
2023/04/23 03:12:09;;;;;;;16.38;14.73;;;12.30;60.30;;;;;;4949394;28;20034;-77
2023/04/23 03:14:35;;;;;;;15.98;14.48;;;12.30;60.30;;;;;;4951973;28;20034;-79
2023/04/23 03:17:01;;;;;;;16.00;14.50;;;12.30;60.40;;;;;;4948545;28;20042;-79
2023/04/23 03:19:30;;;;;;;16.52;14.82;;;12.30;60.40;;;;;;4948124;28;20073;-79
2023/04/23 03:21:56;;;;;;;16.05;14.52;;;12.30;60.40;;;;;;4952892;28;20138;-78
2023/04/23 03:24:22;;;;;;;16.27;14.65;;;12.30;60.50;;;;;;4957804;28;20472;-78
2023/04/23 03:26:48;;;;;;;15.88;14.35;;;12.30;60.50;;;;;;4948593;28;20546;-77
2023/04/23 03:29:14;;;;;;;15.95;14.45;;;12.30;60.50;;;;;;4949215;28;20043;-77
2023/04/23 03:31:40;;;;;;;15.38;13.98;;;12.30;60.60;;;;;;4948053;28;20068;-78
2023/04/23 03:34:09;;;;;;;16.23;14.63;;;12.20;60.40;;;;;;4948444;28;20031;-78
2023/04/23 03:36:35;;;;;;;16.90;15.30;;;12.20;60.50;;;;;;4949698;28;20161;-79
2023/04/23 03:39:02;;;;;;;16.05;14.55;;;12.20;60.50;;;;;;4947713;28;20043;-77
2023/04/23 03:41:35;;;;;;;15.80;14.20;;;12.20;60.60;;;;;;4948780;28;20035;-78
2023/04/23 03:44:01;;;;;;;15.05;13.63;;;12.20;60.60;;;;;;4948189;28;20062;-79
2023/04/23 03:46:38;;;;;;;16.30;14.77;;;12.20;60.60;;;;;;4931795;29;20494;-79
2023/04/23 03:49:04;;;;;;;15.65;14.25;;;12.20;60.70;;;;;;4948736;28;20054;-79
2023/04/23 03:51:31;;;;;;;15.48;13.98;;;12.20;60.70;;;;;;4948742;28;20043;-77
2023/04/23 03:53:57;;;;;;;15.00;13.48;;;12.20;60.70;;;;;;4960062;28;20038;-78
2023/04/23 03:56:52;;;;;;;15.70;14.10;;;12.20;60.70;;;;;;4940551;28;20138;-78
2023/04/23 03:59:22;;;;;;;16.00;14.40;;;12.10;60.50;;;;;;4951190;28;20057;-79
2023/04/23 04:01:50;;;;;;;15.05;13.55;;;12.10;60.60;;;;;;4945116;28;20135;-81
2023/04/23 04:04:17;;;;;;;16.02;14.48;;;12.10;60.70;;;;;;4931205;29;20478;-79
2023/04/23 04:06:43;;;;;;;14.95;13.55;;;12.10;60.70;;;;;;4945963;28;20122;-79
2023/04/23 04:09:09;;;;;;;14.18;12.88;;;12.00;60.60;;;;;;4948881;28;20126;-78
2023/04/23 04:11:35;;;;;;;15.48;14.02;;;12.00;60.70;;;;;;4945156;28;20027;-78
2023/04/23 04:14:01;;;;;;;15.05;13.65;;;12.00;60.70;;;;;;4945381;28;20043;-78
2023/04/23 04:16:27;;;;;;;14.95;13.45;;;12.00;60.70;;;;;;4946939;28;20035;-77
2023/04/23 04:18:53;;;;;;;16.08;14.48;;;12.00;60.80;;;;;;4947199;28;20130;-78
2023/04/23 04:21:19;;;;;;;15.45;13.93;;;11.90;60.70;;;;;;4947682;28;20023;-78
2023/04/23 04:23:45;;;;;;;14.68;13.27;;;11.90;60.70;;;;;;4946368;28;20035;-78
2023/04/23 04:26:12;;;;;;;15.02;13.50;;;11.90;60.80;;;;;;4945703;28;20114;-78
2023/04/23 04:28:38;;;;;;;16.25;14.75;;;11.90;60.80;;;;;;4946621;28;20039;-77
2023/04/23 04:31:05;;;;;;;15.65;14.18;;;11.90;60.90;;;;;;4949284;28;20035;-78
2023/04/23 04:33:34;;;;;;;15.77;14.27;;;11.80;60.80;;;;;;4944545;28;20039;-79
2023/04/23 04:36:00;;;;;;;15.68;14.18;;;11.80;61.40;;;;;;4932422;28;20502;-78
2023/04/23 04:38:27;;;;;;;15.95;14.43;;;11.80;60.90;;;;;;4956194;28;20070;-78
2023/04/23 04:40:59;;;;;;;15.23;13.73;;;11.80;60.90;;;;;;4949485;28;20038;-77
2023/04/23 04:43:25;;;;;;;15.32;13.82;;;11.70;60.80;;;;;;4952469;28;20062;-79
2023/04/23 04:45:52;;;;;;;14.80;13.40;;;11.70;60.80;;;;;;4951793;28;20070;-80
2023/04/23 04:48:18;;;;;;;14.35;12.95;;;11.70;60.80;;;;;;4945539;28;20078;-80
2023/04/23 04:50:45;;;;;;;16.27;14.75;;;11.60;60.70;;;;;;4945205;28;20077;-80
2023/04/23 04:53:11;;;;;;;15.13;13.63;;;11.60;60.80;;;;;;4950414;28;20114;-80
2023/04/23 04:55:37;;;;;;;15.27;13.77;;;11.60;60.80;;;;;;4945604;28;20121;-80
2023/04/23 04:58:03;;;;;;;15.60;14.00;;;11.50;60.70;;;;;;4947080;28;20265;-80
2023/04/23 05:00:29;;;;;;;15.77;14.18;;;11.50;60.80;;;;;;4946874;28;20039;-80
2023/04/23 05:02:56;;;;;;;16.75;15.15;;;11.50;60.80;;;;;;4940002;28;20484;-79
2023/04/23 05:05:23;;;;;;;15.88;14.27;;;11.50;60.90;;;;;;4939116;28;20047;-79
2023/04/23 05:07:50;;;;;;;16.38;14.77;;;11.50;60.90;;;;;;4941746;28;20035;-79
2023/04/23 05:10:16;;;;;;;16.13;14.63;;;11.40;60.70;;;;;;4939788;28;20063;-79
2023/04/23 05:12:43;;;;;;;15.63;14.13;;;11.50;60.90;;;;;;4940045;28;20035;-77
2023/04/23 05:15:12;;;;;;;16.80;14.85;;;11.40;60.70;;;;;;4945745;28;20023;-77
2023/04/23 05:17:39;;;;;;;15.15;13.75;;;11.40;60.80;;;;;;4944679;28;20033;-77
2023/04/23 05:20:09;;;;;;;15.48;13.77;;;11.40;60.80;;;;;;4946260;28;20039;-78
2023/04/23 05:22:40;;;;;;;15.32;13.82;;;11.40;60.90;;;;;;4942224;28;20058;-78
2023/04/23 05:25:07;;;;;;;15.88;14.30;;;11.40;60.90;;;;;;4941266;28;20034;-77
2023/04/23 05:27:33;;;;;;;14.73;13.30;;;11.40;61.00;;;;;;4945521;28;20042;-80
2023/04/23 05:30:04;;;;;;;15.80;14.25;;;11.40;60.90;;;;;;4942515;28;20480;-78
2023/04/23 05:32:31;;;;;;;16.17;14.57;;;11.40;61.00;;;;;;4945714;28;20186;-80
2023/04/23 05:34:58;;;;;;;16.55;15.05;;;11.40;61.00;;;;;;4941468;28;20383;-79
2023/04/23 05:37:24;;;;;;;15.50;14.00;;;11.40;61.00;;;;;;4925454;28;20306;-79
2023/04/23 05:39:51;;;;;;;15.38;13.88;;;11.40;61.00;;;;;;4941395;28;20500;-80
2023/04/23 05:42:17;;;;;;;15.93;14.38;;;11.40;61.00;;;;;;4944281;28;20039;-79
2023/04/23 05:44:43;;;;;;;16.67;14.98;;;11.40;61.00;;;;;;4944624;28;20133;-80
2023/04/23 05:47:10;;;;;;;16.25;14.65;;;11.40;61.10;;;;;;4939425;28;20071;-79
2023/04/23 05:49:36;;;;;;;16.67;14.98;;;11.40;61.10;;;;;;4945782;28;20035;-80
2023/04/23 05:52:02;;;;;;;16.33;14.73;;;11.30;61.00;;;;;;4943657;28;20082;-78
2023/04/23 05:54:28;;;;;;;16.40;14.75;;;11.30;61.00;;;;;;4939405;28;20121;-79
2023/04/23 05:56:54;;;;;;;16.55;14.95;;;11.40;61.20;;;;;;4942321;28;20122;-78
2023/04/23 05:59:20;;;;;;;16.23;14.50;;;11.40;61.10;;;;;;4943626;28;20397;-77
2023/04/23 06:01:47;;;;;;;16.17;14.57;;;11.40;61.20;;;;;;4940513;28;20903;-77
2023/04/23 06:04:14;;;;;;;17.30;15.38;;;11.40;61.20;;;;;;4939128;28;20419;-78
2023/04/23 06:06:41;;;;;;;17.92;16.20;;;11.40;61.20;;;;;;4943779;28;20038;-78
2023/04/23 06:09:07;;;;;;;16.48;14.80;;;11.40;61.10;;;;;;4943567;28;20027;-78
2023/04/23 06:11:34;;;;;;;17.35;15.68;;;11.50;61.30;;;;;;4939105;28;21209;-78
2023/04/23 06:14:01;;;;;;;16.85;15.05;;;11.50;61.20;;;;;;4943356;28;20035;-77
2023/04/23 06:16:27;;;;;;;17.40;15.38;;;11.60;61.30;;;;;;4955940;28;20562;-81
2023/04/23 06:18:55;;;;;;;17.58;15.88;;;11.70;61.50;;;;;;4943157;28;20047;-79
2023/04/23 06:21:24;;;;;;;17.25;15.55;;;11.80;61.60;;;;;;4941197;28;20225;-77
2023/04/23 06:23:50;;;;;;;16.17;14.48;;;11.90;61.60;;;;;;4943347;28;20042;-75
2023/04/23 06:26:16;;;;;;;13.43;11.43;;;12.10;61.60;;;;;;4937931;28;20023;-76
2023/04/23 06:28:45;;;;;;;11.93;10.50;;;12.30;62.00;;;;;;4941948;28;20566;-75
2023/04/23 06:31:27;;;;;;;10.07;9.13;;;12.70;63.00;;;;;;4937466;28;20071;-78
2023/04/23 06:33:53;;;;;;;13.15;11.85;;;13.20;63.70;;;;;;4943822;28;20312;-76
2023/04/23 06:36:20;;;;;;;12.32;11.07;;;13.70;64.20;;;;;;4944074;28;20050;-76
2023/04/23 06:38:45;;;;;;;13.25;10.68;;;14.10;64.30;;;;;;4927460;29;20050;-78
2023/04/23 06:41:12;;;;;;;10.90;9.80;;;14.70;64.60;;;;;;4943442;28;20035;-78
2023/04/23 06:43:38;;;;;;;13.70;9.57;;;15.20;64.70;;;;;;4940537;28;20031;-78
2023/04/23 06:46:21;;;;;;;11.15;10.10;;;15.60;64.50;;;;;;4943487;28;20047;-78
2023/04/23 06:48:47;;;;;;;11.52;9.05;;;16.10;64.40;;;;;;4948537;28;20046;-78
2023/04/23 06:51:13;;;;;;;8.25;7.53;;;16.60;64.40;;;;;;4965110;28;20030;-78
2023/04/23 06:53:40;;;;;;;8.10;7.40;;;17.10;64.50;;;;;;4966096;28;20020;-77
2023/04/23 06:56:06;;;;;;;8.93;8.10;;;17.50;64.30;;;;;;4963807;28;20041;-83
2023/04/23 06:58:32;;;;;;;8.27;7.57;;;18.00;64.10;;;;;;4964937;28;20316;-78
2023/04/23 07:01:06;;;;;;;7.97;7.28;;;18.40;63.90;;;;;;4965132;28;20035;-76
2023/04/23 07:03:35;;;;;;;7.43;6.75;;;18.80;63.40;;;;;;4959801;28;20210;-76
2023/04/23 07:06:01;;;;;;;8.57;7.70;;;19.20;63.20;;;;;;4943290;28;20031;-77
2023/04/23 07:08:26;;;;;;;7.82;7.13;;;19.60;62.60;;;;;;4945160;28;20430;-77
2023/04/23 07:10:52;;;;;;;7.50;6.80;;;19.90;62.30;;;;;;4942680;28;20067;-77
2023/04/23 07:13:19;;;;;;;8.07;7.38;;;20.30;62.00;;;;;;4940348;28;20027;-76
2023/04/23 07:15:45;;;;;;;8.07;7.38;;;20.60;61.60;;;;;;4940238;28;20035;-77
2023/04/23 07:18:11;;;;;;;7.30;6.65;;;21.00;61.30;;;;;;4941338;28;20554;-78
2023/04/23 07:20:37;;;;;;;7.55;6.85;;;21.30;60.90;;;;;;4942727;28;20035;-80
2023/04/23 07:23:04;;;;;;;10.05;7.93;;;21.60;60.60;;;;;;4939644;28;20077;-76
2023/04/23 07:25:30;;;;;;;10.38;7.30;;;21.80;60.30;;;;;;4935867;28;20070;-76
2023/04/23 07:27:56;;;;;;;8.30;7.45;;;21.80;59.70;;;;;;4936775;28;20195;-77
2023/04/23 07:30:23;;;;;;;16.17;9.55;;;21.60;59.20;;;;;;4937648;28;20050;-77
2023/04/23 07:32:49;;;;;;;12.07;10.02;;;21.40;59.00;;;;;;4937892;28;20518;-78
2023/04/23 07:35:15;;;;;;;11.30;10.20;;;21.10;58.90;;;;;;4937616;28;20035;-78
2023/04/23 07:37:41;;;;;;;11.50;10.30;;;20.90;58.90;;;;;;4947288;28;20074;-77
2023/04/23 07:40:08;;;;;;;11.57;10.48;;;20.60;58.90;;;;;;4930959;28;20036;-79
2023/04/23 07:42:34;;;;;;;13.18;12.02;;;20.40;58.90;;;;;;4934356;28;20134;-78
2023/04/23 07:45:00;;;;;;;13.05;11.85;;;20.20;58.80;;;;;;4929728;28;20078;-78
2023/04/23 07:47:26;;;;;;;12.43;11.23;;;20.00;58.60;;;;;;4935451;28;20403;-78
2023/04/23 07:49:52;;;;;;;12.80;11.70;;;19.80;58.60;;;;;;4935541;28;20035;-78
2023/04/23 07:52:18;;;;;;;14.48;12.98;;;19.60;58.60;;;;;;4939078;28;20199;-77
2023/04/23 07:54:45;;;;;;;13.25;11.98;;;19.50;58.70;;;;;;4938931;28;20031;-78
2023/04/23 07:57:11;;;;;;;13.48;12.20;;;19.50;58.70;;;;;;4938885;28;20129;-78
2023/04/23 07:59:40;;;;;;;16.00;14.27;;;19.60;58.50;;;;;;4933202;28;20448;-77
2023/04/23 08:02:06;;;;;;;19.15;14.57;;;19.70;58.40;;;;;;4937562;28;20447;-78
2023/04/23 08:04:32;;;;;;;33.40;16.13;;;19.80;58.10;;;;;;4935428;28;20042;-78
2023/04/23 08:06:58;;;;;;;38.47;20.10;;;19.90;57.90;;;;;;4929397;28;20070;-84
2023/04/23 08:09:24;;;;;;;43.70;20.98;;;20.00;57.80;;;;;;4918538;29;20035;-85
2023/04/23 08:11:51;;;;;;;28.73;18.33;;;20.00;57.50;;;;;;4936231;28;20579;-84
2023/04/23 08:14:17;;;;;;;30.52;20.33;;;20.00;57.50;;;;;;4937389;28;20041;-84
2023/04/23 08:16:43;;;;;;;27.05;17.90;;;19.90;57.40;;;;;;4935246;28;20067;-86
2023/04/23 08:19:10;;;;;;;23.58;17.50;;;19.90;57.60;;;;;;4935565;28;20139;-78
2023/04/23 08:21:37;;;;;;;19.13;15.13;;;19.80;57.40;;;;;;4936078;28;20036;-78
2023/04/23 08:24:06;;;;;;;22.70;14.23;;;19.90;57.60;;;;;;4934318;28;20031;-79
2023/04/23 08:26:32;;;;;;;21.23;14.90;;;19.90;57.50;;;;;;4934825;28;20031;-80
2023/04/23 08:29:01;;;;;;;20.77;14.27;;;19.90;57.40;;;;;;4931826;28;20041;-83
2023/04/23 08:31:27;;;;;;;19.65;12.65;;;20.00;57.40;;;;;;4935323;28;20299;-81
2023/04/23 08:33:54;;;;;;;19.02;10.10;;;20.00;57.50;;;;;;4935548;28;20078;-81
2023/04/23 08:36:20;;;;;;;11.00;8.48;;;20.00;57.80;;;;;;4932915;28;20035;-80
2023/04/23 08:38:46;;;;;;;14.15;9.32;;;20.10;58.20;;;;;;4931507;28;20122;-77
2023/04/23 08:41:14;;;;;;;19.33;9.63;;;20.10;58.20;;;;;;4932861;28;20046;-80
2023/04/23 08:43:46;;;;;;;13.27;7.32;;;20.20;58.40;;;;;;4932601;28;20035;-77
2023/04/23 08:46:14;;;;;;;9.60;7.93;;;20.30;58.70;;;;;;4931971;28;20533;-81
2023/04/23 08:48:42;;;;;;;25.67;10.30;;;20.40;58.80;;;;;;4936225;28;20035;-79
2023/04/23 08:51:10;;;;;;;14.45;8.02;;;20.40;58.90;;;;;;4930488;28;20038;-80
2023/04/23 08:53:37;;;;;;;13.93;7.55;;;20.40;59.10;;;;;;4938811;28;20547;-77
2023/04/23 08:56:05;;;;;;;10.52;7.75;;;20.50;59.50;;;;;;4933648;28;20444;-79
2023/04/23 08:58:32;;;;;;;13.13;8.50;;;20.50;59.50;;;;;;4935058;28;20471;-79
2023/04/23 09:01:00;;;;;;;13.57;8.25;;;20.50;59.40;;;;;;4934323;28;20175;-80
2023/04/23 09:03:28;;;;;;;13.07;9.13;;;20.50;59.40;;;;;;4933836;28;20031;-80
2023/04/23 09:05:54;;;;;;;10.23;8.13;;;20.40;59.00;;;;;;4932827;28;20043;-80
2023/04/23 09:08:20;;;;;;;9.30;8.30;;;20.40;59.00;;;;;;4931045;28;20035;-77
2023/04/23 09:10:46;;;;;;;10.15;8.93;;;20.30;58.80;;;;;;4925310;28;20518;-78
2023/04/23 09:13:13;;;;;;;9.00;7.93;;;20.20;58.60;;;;;;4927723;28;20134;-78
2023/04/23 09:15:42;;;;;;;9.70;7.22;;;20.30;58.70;;;;;;4933304;28;20050;-78
2023/04/23 09:18:09;;;;;;;11.30;7.03;;;20.30;58.40;;;;;;4927942;28;20284;-79
2023/04/23 09:20:35;;;;;;;7.57;6.60;;;20.40;58.50;;;;;;4936288;28;20317;-81
2023/04/23 09:23:06;;;;;;;7.68;6.95;;;20.50;58.30;;;;;;4950993;28;20039;-80
2023/04/23 09:25:32;;;;;;;7.57;6.78;;;20.60;58.00;;;;;;4930428;28;20114;-79
2023/04/23 09:28:00;;;;;;;7.60;6.50;;;20.90;58.10;;;;;;4935627;28;20043;-79
2023/04/23 09:30:26;;;;;;;6.78;6.03;;;21.10;57.90;;;;;;4931006;28;20040;-79
2023/04/23 09:32:52;;;;;;;6.95;6.22;;;21.30;57.70;;;;;;4932523;28;20042;-78
2023/04/23 09:35:18;;;;;;;7.47;6.45;;;21.60;57.60;;;;;;4934579;28;20066;-80
2023/04/23 09:37:49;;;;;;;7.03;6.32;;;21.80;57.40;;;;;;4932348;28;20027;-79
2023/04/23 09:40:18;;;;;;;6.65;5.95;;;21.90;57.20;;;;;;4936586;28;20050;-82
2023/04/23 09:42:49;;;;;;;6.53;5.82;;;22.10;57.00;;;;;;4933926;28;20062;-82
2023/04/23 09:45:15;;;;;;;6.57;5.97;;;22.30;56.60;;;;;;4947731;28;20042;-77
2023/04/23 09:47:50;;;;;;;6.38;5.78;;;22.40;56.40;;;;;;4925572;28;20059;-76
2023/04/23 09:50:16;;;;;;;6.85;6.20;;;22.50;56.10;;;;;;4928589;28;20530;-76
2023/04/23 09:52:42;;;;;;;7.93;6.50;;;22.60;56.10;;;;;;4929748;28;20408;-77
2023/04/23 09:55:08;;;;;;;6.97;6.28;;;22.70;55.90;;;;;;4929923;28;20038;-78
2023/04/23 09:57:40;;;;;;;7.10;6.07;;;22.70;55.70;;;;;;4932928;28;20039;-79
2023/04/23 10:00:17;;;;;;;7.22;6.22;;;22.80;55.60;;;;;;4937545;28;21154;-79
2023/04/23 10:02:48;;;;;;;6.07;5.50;;;22.80;55.30;;;;;;4951990;28;20511;-79
2023/04/23 10:05:19;;;;;;;5.93;5.43;;;22.90;55.30;;;;;;4936539;28;20031;-80
2023/04/23 10:07:47;;;;;;;6.05;5.53;;;22.90;55.00;;;;;;4941164;28;20042;-79
2023/04/23 10:10:19;;;;;;;6.30;5.55;;;23.00;55.50;;;;;;4949775;28;20038;-78
2023/04/23 10:12:46;;;;;;;5.60;5.10;;;23.10;54.70;;;;;;4932979;28;20110;-80
2023/04/23 10:15:13;;;;;;;6.00;5.10;;;23.10;54.70;;;;;;4934014;28;20538;-79
2023/04/23 10:17:40;;;;;;;6.05;5.18;;;23.10;54.40;;;;;;4934743;28;20071;-78
2023/04/23 10:20:08;;;;;;;6.10;5.60;;;23.20;54.40;;;;;;4942238;28;20165;-77
2023/04/23 10:22:36;;;;;;;5.85;5.35;;;23.10;54.20;;;;;;4932723;28;20399;-77
2023/04/23 10:25:07;;;;;;;6.28;5.72;;;23.10;54.10;;;;;;4944720;28;20070;-77
2023/04/23 10:27:38;;;;;;;5.38;4.95;;;23.00;53.80;;;;;;4948613;28;20043;-78
2023/04/23 10:30:06;;;;;;;5.63;5.13;;;22.90;53.40;;;;;;4938976;28;20042;-79
2023/04/23 10:32:36;;;;;;;5.75;5.25;;;22.90;53.30;;;;;;4928122;28;20090;-80
2023/04/23 10:35:02;;;;;;;7.07;5.80;;;22.90;53.00;;;;;;4938402;28;20030;-78
2023/04/23 10:37:28;;;;;;;6.63;6.03;;;22.80;52.80;;;;;;4940138;28;20039;-78
2023/04/23 10:39:57;;;;;;;5.70;5.20;;;22.80;52.80;;;;;;4934452;28;20728;-78
2023/04/23 10:42:24;;;;;;;5.82;5.32;;;22.90;52.80;;;;;;4938602;28;20127;-79
2023/04/23 10:44:54;;;;;;;7.10;6.45;;;22.90;52.60;;;;;;4940814;28;20054;-78
2023/04/23 10:47:21;;;;;;;5.63;5.15;;;23.10;52.60;;;;;;4938439;28;20519;-78
2023/04/23 10:49:47;;;;;;;5.90;5.40;;;23.20;52.40;;;;;;4937675;28;20076;-79
2023/04/23 10:52:15;;;;;;;5.18;4.40;;;23.40;52.60;;;;;;4940620;28;20039;-79
2023/04/23 10:54:42;;;;;;;4.95;4.55;;;23.50;52.40;;;;;;4944358;28;20039;-77
2023/04/23 10:57:09;;;;;;;6.75;4.75;;;23.70;52.50;;;;;;4938510;28;20035;-80
2023/04/23 10:59:40;;;;;;;9.25;8.15;;;23.80;52.30;;;;;;4939867;28;20537;-78
2023/04/23 11:02:12;;;;;;;10.88;9.88;;;23.90;52.40;;;;;;4940918;28;20553;-77
2023/04/23 11:04:45;;;;;;;54.35;40.60;;;24.00;53.00;;;;;;4939706;28;20054;-77
2023/04/23 11:07:12;;;;;;;76.53;56.78;;;24.10;53.60;;;;;;4939879;28;20094;-78
2023/04/23 11:09:43;;;;;;;110.82;98.60;;;24.10;54.10;;;;;;4938619;28;20039;-78
2023/04/23 11:12:17;;;;;;;107.93;96.10;;;24.10;54.50;;;;;;4952397;28;20063;-78
2023/04/23 11:14:44;;;;;;;75.07;66.95;;;24.20;55.10;;;;;;4938709;28;20436;-77
2023/04/23 11:17:12;;;;;;;70.25;62.85;;;24.20;55.20;;;;;;4935665;28;20054;-77
2023/04/23 11:19:42;;;;;;;65.35;58.65;;;24.10;54.90;;;;;;4937612;28;20051;-77
2023/04/23 11:22:17;;;;;;;56.75;51.00;;;24.10;54.90;;;;;;4937916;28;20023;-76
2023/04/23 11:24:44;;;;;;;50.63;45.20;;;24.10;54.90;;;;;;4936623;28;20797;-77
2023/04/23 11:27:11;;;;;;;52.15;45.78;;;24.10;55.00;;;;;;4941136;28;20050;-78
2023/04/23 11:29:39;;;;;;;47.30;42.63;;;24.20;55.90;;;;;;4938811;28;20456;-80
2023/04/23 11:32:14;;;;;;;34.17;30.80;;;24.30;55.70;;;;;;4938585;28;20833;-79
2023/04/23 11:34:44;;;;;;;31.05;27.75;;;24.40;55.60;;;;;;4936162;28;20034;-79
2023/04/23 11:37:12;;;;;;;28.15;25.33;;;24.40;55.00;;;;;;4939646;28;20042;-81
2023/04/23 11:39:42;;;;;;;25.45;23.02;;;24.30;54.40;;;;;;4936735;28;20565;-80
2023/04/23 11:42:10;;;;;;;21.92;19.63;;;24.30;54.10;;;;;;4935262;28;20059;-79
2023/04/23 11:44:41;;;;;;;24.48;21.65;;;24.30;53.80;;;;;;4937468;28;20110;-77
2023/04/23 11:47:09;;;;;;;21.80;18.92;;;24.30;53.50;;;;;;4938858;28;20047;-80
2023/04/23 11:49:37;;;;;;;22.50;20.10;;;24.30;53.60;;;;;;4947265;28;20046;-76
2023/04/23 11:52:03;;;;;;;21.27;18.98;;;24.30;53.60;;;;;;4937724;28;20030;-76
2023/04/23 11:54:29;;;;;;;20.95;18.95;;;24.50;53.80;;;;;;4940689;28;20450;-79
2023/04/23 11:56:56;;;;;;;21.38;19.25;;;24.70;53.90;;;;;;4935343;28;20506;-76
2023/04/23 11:59:23;;;;;;;16.70;15.00;;;25.00;54.00;;;;;;4933119;28;20099;-78
2023/04/23 12:01:52;;;;;;;17.80;15.95;;;25.30;53.60;;;;;;4939121;28;20069;-78
2023/04/23 12:04:23;;;;;;;17.05;15.35;;;25.60;53.20;;;;;;4937912;28;20031;-78
2023/04/23 12:06:50;;;;;;;17.08;15.32;;;25.90;52.90;;;;;;4940585;28;20047;-77
2023/04/23 12:09:18;;;;;;;14.68;13.15;;;26.10;52.40;;;;;;4942471;28;20039;-78
2023/04/23 12:11:45;;;;;;;15.27;13.77;;;26.30;52.00;;;;;;4959853;28;20042;-77
2023/04/23 12:14:13;;;;;;;13.82;12.40;;;26.30;51.80;;;;;;4959630;28;20047;-79
2023/04/23 12:16:44;;;;;;;13.82;12.52;;;26.30;51.70;;;;;;4958630;28;20046;-79
2023/04/23 12:19:15;;;;;;;13.68;12.18;;;26.10;51.60;;;;;;4948763;28;20117;-78
2023/04/23 12:21:53;;;;;;;15.05;12.80;;;25.90;51.60;;;;;;4962828;29;20039;-78
2023/04/23 12:24:25;;;;;;;12.75;11.45;;;25.70;51.80;;;;;;4968469;28;20035;-77
2023/04/23 12:26:57;;;;;;;14.02;12.02;;;25.60;52.10;;;;;;4971645;28;20134;-77
2023/04/23 12:29:24;;;;;;;12.75;11.45;;;25.40;52.30;;;;;;4941812;28;20597;-77
2023/04/23 12:31:51;;;;;;;12.32;11.20;;;25.30;52.60;;;;;;4949816;28;20054;-77